WetterOnline ( https://www.wetteronline.ch )

Wetter aktuell Heide

Aktuelles Wetter: Heide/Elpersbüttel (5m)

6-stündlich | Neueste Meldungen
Ortszeit Temperatur Wetter
Fr, 15.11. 1:00 3.6° C bedeckt
Do, 14.11. 19:00 3.6° C bewölkt
Do, 14.11. 13:00 7.1° C bedeckt
Do, 14.11. 7:00 2.8° C wolkenlos
Do, 14.11. 1:00 2.5° C wolkenlos
Mi, 13.11. 19:00 5.6° C leicht bewölkt
Mi, 13.11. 13:00 5.6° C bedeckt
Mi, 13.11. 7:00 1.7° C wolkenlos
Ortszeit Temperatur Wetter
Fr, 15.11. 5:30 3.8° C bewölkt
Fr, 15.11. 5:20 3.8° C bewölkt
Fr, 15.11. 5:10 3.8° C bewölkt
Fr, 15.11. 5:00 3.7° C wolkig
Fr, 15.11. 4:50 3.7° C wolkig
Fr, 15.11. 4:40 3.5° C bewölkt
Fr, 15.11. 4:30 3.6° C bedeckt
Fr, 15.11. 4:00 3.5° C bedeckt
Ortszeit Relative Feuchte Sichtweite
Fr, 15.11. 1:00 92% 15 km
Do, 14.11. 19:00 94% 14 km
Do, 14.11. 13:00 77% 29 km
Do, 14.11. 7:00 100% 4.1 km
Do, 14.11. 1:00 100% 11 km
Mi, 13.11. 19:00 93% 15 km
Mi, 13.11. 13:00 88% 22 km
Mi, 13.11. 7:00 94% 35 km
Ortszeit Relative Feuchte Sichtweite
Fr, 15.11. 5:30 91% 12 km
Fr, 15.11. 5:20 91% -
Fr, 15.11. 5:10 92% -
Fr, 15.11. 5:00 91% 14 km
Fr, 15.11. 4:50 91% -
Fr, 15.11. 4:40 91% -
Fr, 15.11. 4:30 91% 14 km
Fr, 15.11. 4:00 94% 11 km
Ortszeit Niederschlagsmenge Niederschlagsart
Fr, 15.11. 1:00 0.0 l/m2 in 6 Std. -
Do, 14.11. 19:00 0.0 l/m2 in 12 Std. -
Do, 14.11. 13:00 0.0 l/m2 in 6 Std. -
Do, 14.11. 7:00 0.1 l/m2 in 12 Std. Sprühregen
Do, 14.11. 1:00 0.0 l/m2 in 6 Std. -
Mi, 13.11. 19:00 0.0 l/m2 in 12 Std. -
Mi, 13.11. 13:00 0.0 l/m2 in 6 Std. -
Mi, 13.11. 7:00 0.0 l/m2 in 12 Std. -
Ortszeit Niederschlagsmenge Niederschlagsart
Fr, 15.11. 5:30 0.0 l/m2 in 1 Std. -
Fr, 15.11. 5:20 keine Meldung -
Fr, 15.11. 5:10 keine Meldung -
Fr, 15.11. 5:00 0.0 l/m2 in 1 Std. -
Fr, 15.11. 4:50 keine Meldung -
Fr, 15.11. 4:40 keine Meldung -
Fr, 15.11. 4:30 0.0 l/m2 in 1 Std. -
Fr, 15.11. 4:00 0.0 l/m2 in 1 Std. -
Ortszeit Stärke Spitze Richtung
km/h Bft. km/h Grad Sektor
Fr, 15.11. 1:00 18 3 25 80° O
Do, 14.11. 19:00 9 2 24 100° O
Do, 14.11. 13:00 9 2 24 140° SO
Do, 14.11. 7:00 11 2 22 160° S
Do, 14.11. 1:00 15 3 35 180° S
Mi, 13.11. 19:00 22 4 43 180° S
Mi, 13.11. 13:00 28 4 41 180° S
Mi, 13.11. 7:00 11 2 32 140° SO
Ortszeit Stärke Spitze Richtung
km/h Bft. km/h Grad Sektor
Fr, 15.11. 5:30 22 4 37 90° O
Fr, 15.11. 5:20 22 4 - 90° O
Fr, 15.11. 5:10 22 4 - 90° O
Fr, 15.11. 5:00 22 4 31 80° O
Fr, 15.11. 4:50 22 4 - 80° O
Fr, 15.11. 4:40 20 4 - 80° O
Fr, 15.11. 4:30 18 3 29 70° O
Fr, 15.11. 4:00 17 3 30 70° O
Ortszeit Untergrenze Bedeckung Gattung
total tief tief mittel hoch
Fr, 15.11. 1:00 4800 m 8/8 8/8 - - -
Do, 14.11. 19:00 6900 m 8/8 4/8 - - -
Do, 14.11. 13:00 5700 m 8/8 8/8 - - -
Do, 14.11. 7:00 - 0/8 0/8 - - -
Do, 14.11. 1:00 - 0/8 0/8 - - -
Mi, 13.11. 19:00 630 m 4/8 2/8 - - -
Mi, 13.11. 13:00 360 m 8/8 8/8 - - -
Mi, 13.11. 7:00 - 0/8 0/8 - - -
Ortszeit Bedeckungsgrad in Achtel und Wolkenuntergrenze
Fr, 15.11. 5:30 7(360m)
Fr, 15.11. 5:20 7(360m)
Fr, 15.11. 5:10 6(330m) 7(5100m) 7(8100m)
Fr, 15.11. 5:00 1(420m) 8(8100m) 8(9000m)
Fr, 15.11. 4:50 1(420m) 8(8100m) 8(9000m)
Fr, 15.11. 4:40 5(4800m) 8(8100m) 8(9000m)
Fr, 15.11. 4:30 7(4800m) 8(6900m) 8(8700m)
Fr, 15.11. 4:00 8(4500m) 8(5100m) 8(5700m)
Ortszeit Luftdruck NN (hPa) Tendenz (hPa in 3 Std.)
Fr, 15.11. 1:00 1010 + 0,1
Do, 14.11. 19:00 1010 + 1,8
Do, 14.11. 13:00 1008 + 1,3
Do, 14.11. 7:00 1004 + 1,4
Do, 14.11. 1:00 1001 + 1,2
Mi, 13.11. 19:00 999 + 1,4
Mi, 13.11. 13:00 997 - 0,5
Mi, 13.11. 7:00 998 - 0,6
Ortszeit Luftdruck NN (hPa) Tendenz (hPa in 3 Std.)
Fr, 15.11. 5:30 1008 - 1,2
Fr, 15.11. 5:20 1008 keine Meldung
Fr, 15.11. 5:10 1008 keine Meldung
Fr, 15.11. 5:00 1008 - 1,5
Fr, 15.11. 4:50 1008 keine Meldung
Fr, 15.11. 4:40 1008 keine Meldung
Fr, 15.11. 4:30 1008 - 1,3
Fr, 15.11. 4:00 1009 - 0,8
Ortszeit Schneehöhe (cm)
Fr, 15.11. 1:00 0
Do, 14.11. 19:00 0
Do, 14.11. 13:00 0
Do, 14.11. 7:00 0
Do, 14.11. 1:00 0
Mi, 13.11. 19:00 0
Mi, 13.11. 13:00 0
Mi, 13.11. 7:00 0
Ortszeit Schneehöhe (cm)
Fr, 15.11. 5:30 0
Fr, 15.11. 5:20 0
Fr, 15.11. 5:10 0
Fr, 15.11. 5:00 0
Fr, 15.11. 4:50 0
Fr, 15.11. 4:40 0
Fr, 15.11. 4:30 0
Fr, 15.11. 4:00 0
Link zu dieser Seite / Seite empfehlen

Das Wetter in ...